Gumbo, South Dakota
Current Conditions -  °F | °C
As of 9:55 PM on Saturday 22 Nov 2014 (Local Time) from KPHP Reporting Station
Overcast Overcast  
Wind Chill: 37°   Ceiling: 10000
Heat Index: 41°   Visibility: 10mi
Dew Point: 30°   Wind: 6mph
Humidity: 65%   Direction: 300°WNW
Pressure: 29.4"   Gusts: NA
Location:  44.0995°N, 102.331°W
Report Text: KPHP 230455Z AUTO 30005KT 10SM OVC100 05/M01 A2940 RMK AO2 SLP952 T00501011 $
Loading
Personal Weather Stations






























Interactive Weather Map New forecast layout! Learn more

10-Day Weather Forecast

Advertisements
Track Severe Weather on mobile